• Join FlightAware (Why Join?)
  • Login
  • US Flag 
08:21PM EDT


 

Airport Tracker/Info


-or-


 

Live Flight TrackerFlight Track Log ✈ TAM3516 ✈ 30-Jun-2013 ✈ SBGR / GRU - SBRF / REC

Flight Track Log - Related Links

Times and Time Zones

All times are in EDT time to prevent confusion due to time zone crossing. See the TAM3516 flight status page for this flight to view local times or setup timezone preferences in your user account.

Time Position Orientation Groundspeed Altitude Reporting Facility
EDT Latitude Longitude Course Direction KTS MPH feet Rate Location/Type
04:24PM -22.1010 -45.3608 38° Northeast  Level Estimated
04:25PM -22.0175 -45.2922 37° Northeast  Level Estimated
04:26PM -21.9341 -45.2237 37° Northeast  Level Estimated
04:27PM -21.8506 -45.1553 37° Northeast  Level Estimated
04:28PM -21.7670 -45.0869 37° Northeast  Level Estimated
04:29PM -21.6835 -45.0186 37° Northeast  Level Estimated
04:30PM -21.5999 -44.9505 37° Northeast  Level Estimated
04:31PM -21.5163 -44.8823 37° Northeast  Level Estimated
04:32PM -21.4326 -44.8143 37° Northeast  Level Estimated
04:33PM -21.3490 -44.7464 37° Northeast  Level Estimated
04:34PM -21.2653 -44.6785 37° Northeast  Level Estimated
04:35PM -21.1815 -44.6107 37° Northeast  Level Estimated
04:36PM -21.0978 -44.5430 37° Northeast  Level Estimated
04:37PM -21.0140 -44.4753 37° Northeast  Level Estimated
04:38PM -20.9302 -44.4077 37° Northeast  Level Estimated
04:39PM -20.8464 -44.3403 37° Northeast  Level Estimated
04:40PM -20.7625 -44.2728 37° Northeast  Level Estimated
04:41PM -20.6786 -44.2055 37° Northeast  Level Estimated
04:42PM -20.5947 -44.1382 37° Northeast  Level Estimated
04:43PM -20.5108 -44.0710 37° Northeast  Level Estimated
04:44PM -20.4268 -44.0039 37° Northeast  Level Estimated
04:45PM -20.3428 -43.9369 37° Northeast  Level Estimated
04:46PM -20.2588 -43.8699 37° Northeast  Level Estimated
04:47PM -20.1748 -43.8030 37° Northeast  Level Estimated
04:48PM -20.0907 -43.7361 37° Northeast  Level Estimated
04:49PM -20.0067 -43.6694 37° Northeast  Level Estimated
04:50PM -19.9225 -43.6027 37° Northeast  Level Estimated
04:51PM -19.8384 -43.5361 37° Northeast  Level Estimated
04:52PM -19.7542 -43.4695 37° Northeast  Level Estimated
04:53PM -19.6700 -43.4030 37° Northeast  Level Estimated
04:54PM -19.5858 -43.3366 37° Northeast  Level Estimated
04:55PM -19.5016 -43.2703 37° Northeast  Level Estimated
04:56PM -19.4173 -43.2040 37° Northeast  Level Estimated
04:57PM -19.3331 -43.1378 37° Northeast  Level Estimated
04:58PM -19.2488 -43.0717 37° Northeast  Level Estimated
04:59PM -19.1644 -43.0056 37° Northeast  Level Estimated
05:00PM -19.0801 -42.9396 36° Northeast  Level Estimated
05:01PM -18.9957 -42.8737 36° Northeast  Level Estimated
05:02PM -18.9113 -42.8078 36° Northeast  Level Estimated
05:03PM -18.8269 -42.7421 36° Northeast  Level Estimated
05:04PM -18.7424 -42.6763 36° Northeast  Level Estimated
05:05PM -18.6579 -42.6107 36° Northeast  Level Estimated
05:06PM -18.5735 -42.5451 36° Northeast  Level Estimated
05:07PM -18.4889 -42.4795 36° Northeast  Level Estimated
05:08PM -18.4044 -42.4141 36° Northeast  Level Estimated
05:09PM -18.3198 -42.3487 36° Northeast  Level Estimated
05:10PM -18.2353 -42.2833 36° Northeast  Level Estimated
05:11PM -18.1507 -42.2180 36° Northeast  Level Estimated
05:12PM -18.0660 -42.1528 36° Northeast  Level Estimated
05:13PM -17.9814 -42.0877 36° Northeast  Level Estimated
05:14PM -17.8967 -42.0226 36° Northeast  Level Estimated
05:15PM -17.8120 -41.9576 36° Northeast  Level Estimated
05:16PM -17.7273 -41.8926 36° Northeast  Level Estimated
05:17PM -17.6426 -41.8277 36° Northeast  Level Estimated
05:18PM -17.5578 -41.7629 36° Northeast  Level Estimated
05:19PM -17.4730 -41.6981 36° Northeast  Level Estimated
05:20PM -17.3882 -41.6334 36° Northeast  Level Estimated
05:21PM -17.3034 -41.5687 36° Northeast  Level Estimated
05:22PM -17.2186 -41.5041 36° Northeast  Level Estimated
05:23PM -17.1337 -41.4396 36° Northeast  Level Estimated
05:24PM -17.0488 -41.3751 36° Northeast  Level Estimated
05:25PM -16.9639 -41.3107 36° Northeast  Level Estimated
05:26PM -16.8790 -41.2463 36° Northeast  Level Estimated
05:27PM -16.7941 -41.1820 36° Northeast  Level Estimated
05:28PM -16.7091 -41.1177 36° Northeast  Level Estimated
05:29PM -16.6241 -41.0536 36° Northeast  Level Estimated
05:30PM -16.5391 -40.9894 36° Northeast  Level Estimated
05:31PM -16.4541 -40.9253 36° Northeast  Level Estimated
05:32PM -16.3691 -40.8613 36° Northeast  Level Estimated
05:33PM -16.2840 -40.7973 36° Northeast  Level Estimated
05:34PM -16.1989 -40.7334 36° Northeast  Level Estimated
05:35PM -16.1138 -40.6696 36° Northeast  Level Estimated
05:36PM -16.0287 -40.6058 36° Northeast  Level Estimated
05:37PM -15.9436 -40.5420 36° Northeast  Level Estimated
05:38PM -15.8584 -40.4783 36° Northeast  Level Estimated
05:39PM -15.7732 -40.4147 36° Northeast  Level Estimated
05:40PM -15.6881 -40.3511 36° Northeast  Level Estimated
05:41PM -15.6028 -40.2876 36° Northeast  Level Estimated
05:42PM -15.5176 -40.2241 36° Northeast  Level Estimated
05:43PM -15.4324 -40.1607 36° Northeast  Level Estimated
05:44PM -15.3471 -40.0973 36° Northeast  Level Estimated
05:45PM -15.2618 -40.0340 36° Northeast  Level Estimated
05:46PM -15.1765 -39.9707 36° Northeast  Level Estimated
05:47PM -15.0912 -39.9075 36° Northeast  Level Estimated
05:48PM -15.0059 -39.8443 36° Northeast  Level Estimated
05:49PM -14.9205 -39.7812 36° Northeast  Level Estimated
05:50PM -14.8351 -39.7181 36° Northeast  Level Estimated
05:51PM -14.7498 -39.6551 36° Northeast  Level Estimated
05:52PM -14.6644 -39.5921 36° Northeast  Level Estimated
05:53PM -14.5789 -39.5292 35° Northeast  Level Estimated
05:54PM -14.4935 -39.4663 35° Northeast  Level Estimated
05:55PM -14.4080 -39.4035 35° Northeast  Level Estimated
05:56PM -14.3226 -39.3407 35° Northeast  Level Estimated
05:57PM -14.2371 -39.2780 35° Northeast  Level Estimated
05:58PM -14.1516 -39.2153 35° Northeast  Level Estimated
05:59PM -14.0661 -39.1527 35° Northeast  Level Estimated
06:00PM -13.9805 -39.0901 35° Northeast  Level Estimated
06:01PM -13.8950 -39.0275 35° Northeast  Level Estimated
06:02PM -13.8094 -38.9650 35° Northeast  Level Estimated
06:03PM -13.7238 -38.9026 35° Northeast  Level Estimated
06:04PM -13.6382 -38.8402 35° Northeast  Level Estimated
06:05PM -13.5526 -38.7778 35° Northeast  Level Estimated
06:06PM -13.4670 -38.7155 35° Northeast  Level Estimated
06:07PM -13.3813 -38.6532 35° Northeast  Level Estimated
06:08PM -13.2957 -38.5910 35° Northeast  Level Estimated
06:09PM -13.2100 -38.5288 35° Northeast  Level Estimated
06:10PM -13.1243 -38.4667 35° Northeast  Level Estimated
06:11PM -13.0386 -38.4046 35° Northeast  Level Estimated
06:12PM -12.9529 -38.3425 35° Northeast  Level Estimated
06:13PM -12.8671 -38.2805 35° Northeast  Level Estimated
06:14PM -12.7814 -38.2186 35° Northeast  Level Estimated
06:15PM -12.6956 -38.1567 35° Northeast  Level Estimated
06:16PM -12.6098 -38.0948 35° Northeast  Level Estimated
06:17PM -12.5241 -38.0329 35° Northeast  Level Estimated
06:18PM -12.4382 -37.9711 35° Northeast  Level Estimated
06:19PM -12.3524 -37.9094 35° Northeast  Level Estimated
06:20PM -12.2666 -37.8476 35° Northeast  Level Estimated
06:21PM -12.1807 -37.7860 35° Northeast  Level Estimated
06:22PM -12.0949 -37.7243 35° Northeast  Level Estimated
06:23PM -12.0090 -37.6627 35° Northeast  Level Estimated
06:24PM -11.9231 -37.6012 35° Northeast  Level Estimated
06:25PM -11.8372 -37.5396 35° Northeast  Level Estimated
06:26PM -11.7513 -37.4782 35° Northeast  Level Estimated
06:27PM -11.6654 -37.4167 35° Northeast  Level Estimated
06:28PM -11.5794 -37.3553 35° Northeast  Level Estimated
06:29PM -11.4935 -37.2939 35° Northeast  Level Estimated
06:30PM -11.4075 -37.2326 35° Northeast  Level Estimated
06:31PM -11.3215 -37.1713 35° Northeast  Level Estimated
06:32PM -11.2355 -37.1101 35° Northeast  Level Estimated
06:33PM -11.1495 -37.0489 35° Northeast  Level Estimated
06:34PM -11.0635 -36.9877 35° Northeast  Level Estimated
06:35PM -10.9775 -36.9265 35° Northeast  Level Estimated
06:36PM -10.8914 -36.8654 35° Northeast  Level Estimated
06:37PM -10.8054 -36.8043 35° Northeast  Level Estimated
06:38PM -10.7193 -36.7433 35° Northeast  Level Estimated
06:39PM -10.6332 -36.6823 35° Northeast  Level Estimated
06:40PM -10.5471 -36.6213 35° Northeast  Level Estimated
06:41PM -10.4610 -36.5604 35° Northeast  Level Estimated
06:42PM -10.3749 -36.4995 35° Northeast  Level Estimated
06:43PM -10.2888 -36.4386 35° Northeast  Level Estimated
06:44PM -10.2027 -36.3778 35° Northeast  Level Estimated
06:45PM -10.1165 -36.3169 35° Northeast  Level Estimated
06:46PM -10.0303 -36.2562 35° Northeast  Level Estimated
06:47PM -9.9442 -36.1954 35° Northeast  Level Estimated
06:48PM -9.8580 -36.1347 35° Northeast  Level Estimated
06:49PM -9.7718 -36.0740 35° Northeast  Level Estimated
06:50PM -9.6856 -36.0134 35° Northeast  Level Estimated
06:51PM -9.5994 -35.9528 35° Northeast  Level Estimated
06:52PM -9.5132 -35.8922 35° Northeast  Level Estimated
06:53PM -9.4270 -35.8317 35° Northeast  Level Estimated
06:54PM -9.3407 -35.7711 35° Northeast  Level Estimated
06:55PM -9.2545 -35.7107 35° Northeast  Level Estimated
06:56PM -9.1682 -35.6502 35° Northeast  Level Estimated
06:57PM -9.0819 -35.5898 35° Northeast  Level Estimated
06:58PM -8.9956 -35.5294 35° Northeast  Level Estimated
06:59PM -8.9094 -35.4690 35° Northeast  Level Estimated
07:00PM -8.8230 -35.4086 35° Northeast  Level Estimated
07:01PM -8.7367 -35.3483 35° Northeast  Level Estimated
07:02PM -8.6504 -35.2880 35° Northeast  Level Estimated
07:03PM -8.5641 -35.2278 35° Northeast  Level Estimated
07:04PM -8.4777 -35.1675 35° Northeast  Level Estimated
07:05PM -8.3914 -35.1073 35° Northeast  Level Estimated
07:06PM -8.3050 -35.0471 35° Northeast  Level Estimated
07:07PM -8.2187 -34.9870 35° Northeast  Level Estimated
07:08PM -8.1323 -34.9269 35° Northeast  Level Estimated
07:09PM -8.1268 -34.9230 35° Northeast  Level Estimated
07:10PM -8.1268 -34.9230 166° South  Level Estimated
07:11PM -8.1268 -34.9230 166° South  Level Estimated
07:12PM -8.1268 -34.9230 166° South  Level Estimated
07:13PM -8.1268 -34.9230 166° South  Level Estimated
07:14PM -8.1268 -34.9230 166° South  Level Estimated
07:15PM -8.1268 -34.9230 166° South  Level Estimated
07:16PM -8.1268 -34.9230 166° South  Level Estimated
07:17PM -8.1268 -34.9230 166° South  Level Estimated
07:18PM -8.1268 -34.9230 166° South  Level Estimated
07:19PM -8.1268 -34.9230 166° South  Level Estimated
07:20PM -8.1268 -34.9230 166° South  Level Estimated
07:21PM -8.1268 -34.9230 166° South  Level Estimated
07:22PM -8.1268 -34.9230 166° South  Level Estimated
07:23PM -8.1268 -34.9230 166° South  Level Estimated